ěÝzenÝ letovÚho provozu ╚eskÚ republiky
Letiste: LKCV Aktualizace: 19.01.2021 13:28:24  UTC
 METAR LKCV 19.01. 13:30 ...
METAR LKCV 191330Z 18007KT CAVOK 02/M03 Q1012 NOSIG RMK BLU BLU=
 TAF LKCV 19.01. 11:00 ...
TAF LKCV 191100Z 1912/2012 23012KT 9999 SCT020 BKN035      BECMG 1912/1914 7000 RASN BKN020 OVC040      TEMPO 1912/2003 23018KT      TEMPO 1914/2000 3000 RASN BKN010 OVC020      PROB40 1914/1920 23018G28KT 1600 SN OVC005      BECMG 2004/2007 21007KT CAVOK=